sensor_id;sensor_type;location;lat;lon;timestamp;pressure;altitude;pressure_sealevel;temperature;humidity
62402;BME280;48440;51.224;22.506;2024-03-06T00:01:37;99295.75;;;6.24;98.44
62402;BME280;48440;51.224;22.506;2024-03-06T00:04:03;99302.22;;;6.23;98.76
62402;BME280;48440;51.224;22.506;2024-03-06T00:06:29;99297.66;;;6.23;98.74
62402;BME280;48440;51.224;22.506;2024-03-06T00:08:56;99291.66;;;6.21;98.64
62402;BME280;48440;51.224;22.506;2024-03-06T00:11:21;99302.22;;;6.23;99.02
62402;BME280;48440;51.224;22.506;2024-03-06T00:13:47;99298.69;;;6.22;99.22
62402;BME280;48440;51.224;22.506;2024-03-06T00:16:13;99305.75;;;6.23;98.77
62402;BME280;48440;51.224;22.506;2024-03-06T00:18:39;99298.44;;;6.24;99.19
62402;BME280;48440;51.224;22.506;2024-03-06T00:21:05;99300.09;;;6.25;99.33
62402;BME280;48440;51.224;22.506;2024-03-06T00:23:32;99303.63;;;6.25;98.83
62402;BME280;48440;51.224;22.506;2024-03-06T00:25:57;99303.38;;;6.27;99.20
62402;BME280;48440;51.224;22.506;2024-03-06T00:28:23;99300.91;;;6.25;98.90
62402;BME280;48440;51.224;22.506;2024-03-06T00:30:49;99301.50;;;6.27;98.68
62402;BME280;48440;51.224;22.506;2024-03-06T00:33:15;99303.97;;;6.29;98.96
62402;BME280;48440;51.224;22.506;2024-03-06T00:35:40;99303.16;;;6.28;98.83
62402;BME280;48440;51.224;22.506;2024-03-06T00:38:06;99301.06;;;6.30;98.51
62402;BME280;48440;51.224;22.506;2024-03-06T00:40:32;99303.53;;;6.32;98.39
62402;BME280;48440;51.224;22.506;2024-03-06T00:42:58;99299.78;;;6.33;98.22
62402;BME280;48440;51.224;22.506;2024-03-06T00:45:24;99295.81;;;6.35;97.71
62402;BME280;48440;51.224;22.506;2024-03-06T00:47:49;99292.06;;;6.36;97.83
62402;BME280;48440;51.224;22.506;2024-03-06T00:50:15;99299.13;;;6.37;97.55
62402;BME280;48440;51.224;22.506;2024-03-06T00:52:42;99294.78;;;6.36;96.80
62402;BME280;48440;51.224;22.506;2024-03-06T00:55:09;99291.84;;;6.38;96.96
62402;BME280;48440;51.224;22.506;2024-03-06T00:57:35;99292.91;;;6.37;96.55
62402;BME280;48440;51.224;22.506;2024-03-06T01:00:02;99291.25;;;6.36;96.47
62402;BME280;48440;51.224;22.506;2024-03-06T01:02:36;99290.88;;;6.32;96.36
62402;BME280;48440;51.224;22.506;2024-03-06T01:05:02;99305.56;;;6.36;96.48
62402;BME280;48440;51.224;22.506;2024-03-06T01:07:29;99302.88;;;6.36;96.34
62402;BME280;48440;51.224;22.506;2024-03-06T01:09:55;99302.88;;;6.36;95.39
62402;BME280;48440;51.224;22.506;2024-03-06T01:12:25;99297.25;;;6.38;95.39
62402;BME280;48440;51.224;22.506;2024-03-06T01:14:51;99313.19;;;6.39;94.80
62402;BME280;48440;51.224;22.506;2024-03-06T01:17:16;99305.94;;;6.40;94.43
62402;BME280;48440;51.224;22.506;2024-03-06T01:19:42;99314.00;;;6.40;93.93
62402;BME280;48440;51.224;22.506;2024-03-06T01:22:11;99309.66;;;6.39;94.27
62402;BME280;48440;51.224;22.506;2024-03-06T01:24:38;99309.44;;;6.40;93.86
62402;BME280;48440;51.224;22.506;2024-03-06T01:27:04;99308.16;;;6.43;93.21
62402;BME280;48440;51.224;22.506;2024-03-06T01:29:29;99310.88;;;6.43;92.75
62402;BME280;48440;51.224;22.506;2024-03-06T01:31:55;99307.34;;;6.42;92.62
62402;BME280;48440;51.224;22.506;2024-03-06T01:34:20;99319.63;;;6.38;92.62
62402;BME280;48440;51.224;22.506;2024-03-06T01:36:47;99308.84;;;6.38;92.19
62402;BME280;48440;51.224;22.506;2024-03-06T01:39:13;99308.03;;;6.38;92.02
62402;BME280;48440;51.224;22.506;2024-03-06T01:41:45;99313.88;;;6.35;92.05
62402;BME280;48440;51.224;22.506;2024-03-06T01:44:11;99313.03;;;6.34;91.77
62402;BME280;48440;51.224;22.506;2024-03-06T01:46:38;99322.19;;;6.33;91.95
62402;BME280;48440;51.224;22.506;2024-03-06T01:49:03;99321.56;;;6.31;92.29
62402;BME280;48440;51.224;22.506;2024-03-06T01:51:29;99328.03;;;6.30;91.26
62402;BME280;48440;51.224;22.506;2024-03-06T01:53:56;99329.66;;;6.31;91.34
62402;BME280;48440;51.224;22.506;2024-03-06T01:56:23;99322.63;;;6.30;91.50
62402;BME280;48440;51.224;22.506;2024-03-06T01:58:49;99315.00;;;6.27;91.32
62402;BME280;48440;51.224;22.506;2024-03-06T02:01:15;99319.56;;;6.27;90.92
62402;BME280;48440;51.224;22.506;2024-03-06T02:03:42;99318.50;;;6.28;90.67
62402;BME280;48440;51.224;22.506;2024-03-06T02:06:10;99323.31;;;6.26;90.10
62402;BME280;48440;51.224;22.506;2024-03-06T02:08:36;99323.31;;;6.26;90.13
62402;BME280;48440;51.224;22.506;2024-03-06T02:11:02;99330.56;;;6.25;90.43
62402;BME280;48440;51.224;22.506;2024-03-06T02:13:29;99324.44;;;6.18;90.30
62402;BME280;48440;51.224;22.506;2024-03-06T02:15:55;99329.63;;;6.20;90.71
62402;BME280;48440;51.224;22.506;2024-03-06T02:18:21;99324.59;;;6.23;89.87
62402;BME280;48440;51.224;22.506;2024-03-06T02:20:46;99327.59;;;6.15;89.08
62402;BME280;48440;51.224;22.506;2024-03-06T02:23:13;99323.84;;;6.16;89.59
62402;BME280;48440;51.224;22.506;2024-03-06T02:25:40;99335.69;;;6.15;89.49
62402;BME280;48440;51.224;22.506;2024-03-06T02:28:06;99331.94;;;6.16;89.41
62402;BME280;48440;51.224;22.506;2024-03-06T02:30:32;99336.50;;;6.16;89.27
62402;BME280;48440;51.224;22.506;2024-03-06T02:33:02;99346.69;;;6.13;88.67
62402;BME280;48440;51.224;22.506;2024-03-06T02:35:29;99340.69;;;6.11;88.91
62402;BME280;48440;51.224;22.506;2024-03-06T02:37:55;99342.34;;;6.12;88.64
62402;BME280;48440;51.224;22.506;2024-03-06T02:40:22;99336.94;;;6.12;88.33
62402;BME280;48440;51.224;22.506;2024-03-06T02:42:47;99331.56;;;6.12;88.00
62402;BME280;48440;51.224;22.506;2024-03-06T02:45:13;99343.97;;;6.13;88.28
62402;BME280;48440;51.224;22.506;2024-03-06T02:47:39;99343.97;;;6.13;87.78
62402;BME280;48440;51.224;22.506;2024-03-06T02:50:05;99349.38;;;6.13;87.33
62402;BME280;48440;51.224;22.506;2024-03-06T02:52:31;99347.13;;;6.10;87.37
62402;BME280;48440;51.224;22.506;2024-03-06T02:54:56;99339.25;;;6.09;87.30
62402;BME280;48440;51.224;22.506;2024-03-06T02:57:22;99350.03;;;6.09;87.09
62402;BME280;48440;51.224;22.506;2024-03-06T02:59:48;99345.09;;;6.06;87.35
62402;BME280;48440;51.224;22.506;2024-03-06T03:02:13;99355.28;;;6.04;87.14
62402;BME280;48440;51.224;22.506;2024-03-06T03:04:39;99356.31;;;6.03;86.99
62402;BME280;48440;51.224;22.506;2024-03-06T03:07:04;99358.06;;;5.97;87.13
62402;BME280;48440;51.224;22.506;2024-03-06T03:09:30;99362.84;;;5.95;86.73
62402;BME280;48440;51.224;22.506;2024-03-06T03:11:56;99362.38;;;5.98;86.85
62402;BME280;48440;51.224;22.506;2024-03-06T03:14:25;99365.31;;;5.97;86.77
62402;BME280;48440;51.224;22.506;2024-03-06T03:16:50;99360.97;;;5.96;86.71
62402;BME280;48440;51.224;22.506;2024-03-06T03:19:16;99362.03;;;5.95;86.63
62402;BME280;48440;51.224;22.506;2024-03-06T03:21:44;99363.66;;;5.96;86.09
62402;BME280;48440;51.224;22.506;2024-03-06T03:24:09;99367.84;;;5.92;85.85
62402;BME280;48440;51.224;22.506;2024-03-06T03:26:35;99370.53;;;5.92;86.08
62402;BME280;48440;51.224;22.506;2024-03-06T03:29:02;99372.63;;;5.90;86.09
62402;BME280;48440;51.224;22.506;2024-03-06T03:31:28;99371.00;;;5.89;85.64
62402;BME280;48440;51.224;22.506;2024-03-06T03:33:54;99373.03;;;5.87;85.94
62402;BME280;48440;51.224;22.506;2024-03-06T03:36:19;99366.00;;;5.86;85.59
62402;BME280;48440;51.224;22.506;2024-03-06T03:38:45;99381.19;;;5.80;85.16
62402;BME280;48440;51.224;22.506;2024-03-06T03:41:12;99369.06;;;5.71;85.23
62402;BME280;48440;51.224;22.506;2024-03-06T03:43:41;99380.41;;;5.73;85.70
62402;BME280;48440;51.224;22.506;2024-03-06T03:46:07;99375.03;;;5.73;85.57
62402;BME280;48440;51.224;22.506;2024-03-06T03:48:33;99377.97;;;5.71;85.74
62402;BME280;48440;51.224;22.506;2024-03-06T03:51:02;99382.06;;;5.74;85.25
62402;BME280;48440;51.224;22.506;2024-03-06T03:53:32;99386.63;;;5.73;85.59
62402;BME280;48440;51.224;22.506;2024-03-06T03:55:59;99387.91;;;5.71;85.50
62402;BME280;48440;51.224;22.506;2024-03-06T03:58:24;99384.63;;;5.69;84.99
62402;BME280;48440;51.224;22.506;2024-03-06T04:00:50;99390.00;;;5.69;85.02
62402;BME280;48440;51.224;22.506;2024-03-06T04:03:19;99390.44;;;5.66;85.21
62402;BME280;48440;51.224;22.506;2024-03-06T04:05:46;99389.63;;;5.65;84.63
62402;BME280;48440;51.224;22.506;2024-03-06T04:08:12;99392.31;;;5.65;84.74
62402;BME280;48440;51.224;22.506;2024-03-06T04:10:38;99393.94;;;5.66;83.81
62402;BME280;48440;51.224;22.506;2024-03-06T04:13:04;99399.13;;;5.68;83.70
62402;BME280;48440;51.224;22.506;2024-03-06T04:15:29;99388.78;;;5.65;83.88
62402;BME280;48440;51.224;22.506;2024-03-06T04:17:56;99397.09;;;5.63;83.00
62402;BME280;48440;51.224;22.506;2024-03-06T04:20:22;99397.13;;;5.57;83.50
62402;BME280;48440;51.224;22.506;2024-03-06T04:22:47;99401.69;;;5.56;83.04
62402;BME280;48440;51.224;22.506;2024-03-06T04:25:16;99391.13;;;5.55;82.94
62402;BME280;48440;51.224;22.506;2024-03-06T04:27:41;99396.31;;;5.56;83.15
62402;BME280;48440;51.224;22.506;2024-03-06T04:30:08;99397.34;;;5.55;83.18
62402;BME280;48440;51.224;22.506;2024-03-06T04:32:33;99398.41;;;5.54;83.15
62402;BME280;48440;51.224;22.506;2024-03-06T04:34:59;99399.22;;;5.55;83.05
62402;BME280;48440;51.224;22.506;2024-03-06T04:37:24;99397.41;;;5.49;82.76
62402;BME280;48440;51.224;22.506;2024-03-06T04:39:52;99396.56;;;5.48;82.36
62402;BME280;48440;51.224;22.506;2024-03-06T04:42:18;99398.28;;;5.42;82.33
62402;BME280;48440;51.224;22.506;2024-03-06T04:44:45;99398.91;;;5.44;81.89
62402;BME280;48440;51.224;22.506;2024-03-06T04:47:11;99400.56;;;5.45;81.62
62402;BME280;48440;51.224;22.506;2024-03-06T04:49:37;99399.34;;;5.41;81.80
62402;BME280;48440;51.224;22.506;2024-03-06T04:52:02;99409.28;;;5.41;81.32
62402;BME280;48440;51.224;22.506;2024-03-06T04:54:28;99406.84;;;5.33;81.86
62402;BME280;48440;51.224;22.506;2024-03-06T04:56:55;99413.91;;;5.27;81.83
62402;BME280;48440;51.224;22.506;2024-03-06T04:59:21;99415.13;;;5.31;81.84
62402;BME280;48440;51.224;22.506;2024-03-06T05:01:46;99413.06;;;5.33;81.64
62402;BME280;48440;51.224;22.506;2024-03-06T05:04:12;99414.69;;;5.34;82.27
62402;BME280;48440;51.224;22.506;2024-03-06T05:06:38;99418.00;;;5.36;81.55
62402;BME280;48440;51.224;22.506;2024-03-06T05:09:03;99420.69;;;5.36;82.09
62402;BME280;48440;51.224;22.506;2024-03-06T05:11:30;99428.16;;;5.34;82.07
62402;BME280;48440;51.224;22.506;2024-03-06T05:14:00;99423.81;;;5.33;81.72
62402;BME280;48440;51.224;22.506;2024-03-06T05:16:26;99424.66;;;5.34;82.39
62402;BME280;48440;51.224;22.506;2024-03-06T05:18:52;99426.72;;;5.32;82.51
62402;BME280;48440;51.224;22.506;2024-03-06T05:21:18;99423.22;;;5.31;82.35
62402;BME280;48440;51.224;22.506;2024-03-06T05:23:44;99424.03;;;5.32;82.13
62402;BME280;48440;51.224;22.506;2024-03-06T05:26:10;99428.59;;;5.31;82.34
62402;BME280;48440;51.224;22.506;2024-03-06T05:28:36;99431.28;;;5.31;81.92
62402;BME280;48440;51.224;22.506;2024-03-06T05:31:15;99434.19;;;5.30;82.26
62402;BME280;48440;51.224;22.506;2024-03-06T05:33:43;99432.22;;;5.19;83.18
62402;BME280;48440;51.224;22.506;2024-03-06T05:36:09;99437.34;;;5.20;82.78
62402;BME280;48440;51.224;22.506;2024-03-06T05:38:35;99439.59;;;5.23;83.23
62402;BME280;48440;51.224;22.506;2024-03-06T05:41:00;99442.91;;;5.25;83.70
62402;BME280;48440;51.224;22.506;2024-03-06T05:43:26;99445.81;;;5.24;82.50
62402;BME280;48440;51.224;22.506;2024-03-06T05:45:53;99448.50;;;5.24;83.02
62402;BME280;48440;51.224;22.506;2024-03-06T05:48:18;99450.16;;;5.25;83.00
62402;BME280;48440;51.224;22.506;2024-03-06T05:50:44;99445.00;;;5.23;83.63
62402;BME280;48440;51.224;22.506;2024-03-06T05:53:10;99451.19;;;5.24;84.17
62402;BME280;48440;51.224;22.506;2024-03-06T05:55:37;99456.56;;;5.24;83.84
62402;BME280;48440;51.224;22.506;2024-03-06T05:58:02;99451.41;;;5.22;83.62
62402;BME280;48440;51.224;22.506;2024-03-06T06:00:28;99450.22;;;5.18;84.02
62402;BME280;48440;51.224;22.506;2024-03-06T06:02:53;99455.19;;;5.15;84.35
62402;BME280;48440;51.224;22.506;2024-03-06T06:05:19;99463.88;;;5.17;84.25
62402;BME280;48440;51.224;22.506;2024-03-06T06:07:48;99463.47;;;5.20;84.62
62402;BME280;48440;51.224;22.506;2024-03-06T06:10:14;99463.00;;;5.23;84.27
62402;BME280;48440;51.224;22.506;2024-03-06T06:12:40;99459.25;;;5.24;84.14
62402;BME280;48440;51.224;22.506;2024-03-06T06:15:06;99461.97;;;5.24;84.69
62402;BME280;48440;51.224;22.506;2024-03-06T06:17:33;99464.66;;;5.24;84.37
62402;BME280;48440;51.224;22.506;2024-03-06T06:19:59;99464.44;;;5.25;84.70
62402;BME280;48440;51.224;22.506;2024-03-06T06:22:27;99464.03;;;5.22;84.61
62402;BME280;48440;51.224;22.506;2024-03-06T06:24:53;99479.31;;;5.28;83.94
62402;BME280;48440;51.224;22.506;2024-03-06T06:27:20;99476.41;;;5.29;83.81
62402;BME280;48440;51.224;22.506;2024-03-06T06:29:46;99479.31;;;5.28;84.01
62402;BME280;48440;51.224;22.506;2024-03-06T06:32:11;99473.94;;;5.28;83.69
62402;BME280;48440;51.224;22.506;2024-03-06T06:34:38;99482.63;;;5.30;83.81
62402;BME280;48440;51.224;22.506;2024-03-06T06:37:03;99480.38;;;5.27;83.73
62402;BME280;48440;51.224;22.506;2024-03-06T06:39:29;99479.94;;;5.30;83.93
62402;BME280;48440;51.224;22.506;2024-03-06T06:41:55;99480.97;;;5.29;83.87
62402;BME280;48440;51.224;22.506;2024-03-06T06:44:20;99480.16;;;5.28;83.82
62402;BME280;48440;51.224;22.506;2024-03-06T06:46:45;99481.38;;;5.32;84.50
62402;BME280;48440;51.224;22.506;2024-03-06T06:49:11;99481.19;;;5.27;83.94
62402;BME280;48440;51.224;22.506;2024-03-06T06:51:36;99484.50;;;5.29;82.95
62402;BME280;48440;51.224;22.506;2024-03-06T06:54:02;99482.00;;;5.28;83.28
62402;BME280;48440;51.224;22.506;2024-03-06T06:56:29;99486.38;;;5.22;83.67
62402;BME280;48440;51.224;22.506;2024-03-06T06:58:55;99491.16;;;5.20;83.82
62402;BME280;48440;51.224;22.506;2024-03-06T07:01:21;99487.41;;;5.21;84.25
62402;BME280;48440;51.224;22.506;2024-03-06T07:03:47;99498.66;;;5.18;84.64
62402;BME280;48440;51.224;22.506;2024-03-06T07:06:13;99499.84;;;5.22;83.54
62402;BME280;48440;51.224;22.506;2024-03-06T07:08:40;99503.81;;;5.20;83.62
62402;BME280;48440;51.224;22.506;2024-03-06T07:11:06;99506.03;;;5.23;83.31
62402;BME280;48440;51.224;22.506;2024-03-06T07:13:31;99512.91;;;5.19;84.00
62402;BME280;48440;51.224;22.506;2024-03-06T07:15:57;99503.34;;;5.23;84.14
62402;BME280;48440;51.224;22.506;2024-03-06T07:18:22;99509.34;;;5.25;84.25
62402;BME280;48440;51.224;22.506;2024-03-06T07:20:48;99518.25;;;5.25;84.01
62402;BME280;48440;51.224;22.506;2024-03-06T07:23:13;99515.34;;;5.27;83.53
62402;BME280;48440;51.224;22.506;2024-03-06T07:25:39;99517.84;;;5.22;83.52
62402;BME280;48440;51.224;22.506;2024-03-06T07:28:04;99518.47;;;5.24;83.82
62402;BME280;48440;51.224;22.506;2024-03-06T07:30:30;99519.50;;;5.23;83.29
62402;BME280;48440;51.224;22.506;2024-03-06T07:32:56;99520.31;;;5.23;83.54
62402;BME280;48440;51.224;22.506;2024-03-06T07:35:22;99529.28;;;5.17;83.68
62402;BME280;48440;51.224;22.506;2024-03-06T07:37:48;99533.00;;;5.16;84.18
62402;BME280;48440;51.224;22.506;2024-03-06T07:40:13;99529.88;;;5.19;83.43
62402;BME280;48440;51.224;22.506;2024-03-06T07:42:42;99530.31;;;5.16;83.65
62402;BME280;48440;51.224;22.506;2024-03-06T07:45:10;99534.91;;;5.09;82.52
62402;BME280;48440;51.224;22.506;2024-03-06T07:47:36;99535.28;;;5.13;83.15
62402;BME280;48440;51.224;22.506;2024-03-06T07:50:04;99536.75;;;5.15;83.31
62402;BME280;48440;51.224;22.506;2024-03-06T07:52:34;99541.69;;;5.18;83.89
62402;BME280;48440;51.224;22.506;2024-03-06T07:55:01;99545.63;;;5.16;83.73
62402;BME280;48440;51.224;22.506;2024-03-06T07:57:28;99539.44;;;5.15;83.41
62402;BME280;48440;51.224;22.506;2024-03-06T07:59:54;99551.84;;;5.16;83.56
62402;BME280;48440;51.224;22.506;2024-03-06T08:02:20;99544.16;;;5.20;83.52
62402;BME280;48440;51.224;22.506;2024-03-06T08:04:46;99542.69;;;5.24;83.13
62402;BME280;48440;51.224;22.506;2024-03-06T08:07:12;99550.97;;;5.22;82.63
62402;BME280;48440;51.224;22.506;2024-03-06T08:09:38;99552.63;;;5.23;82.28
62402;BME280;48440;51.224;22.506;2024-03-06T08:12:04;99555.50;;;5.22;82.25
62402;BME280;48440;51.224;22.506;2024-03-06T08:14:32;99553.88;;;5.21;82.54
62402;BME280;48440;51.224;22.506;2024-03-06T08:16:59;99554.47;;;5.23;82.85
62402;BME280;48440;51.224;22.506;2024-03-06T08:19:25;99564.41;;;5.22;82.68
62402;BME280;48440;51.224;22.506;2024-03-06T08:21:51;99561.09;;;5.20;82.02
62402;BME280;48440;51.224;22.506;2024-03-06T08:24:17;99560.91;;;5.22;82.54
62402;BME280;48440;51.224;22.506;2024-03-06T08:26:43;99571.72;;;5.15;82.47
62402;BME280;48440;51.224;22.506;2024-03-06T08:29:08;99577.25;;;5.20;82.32
62402;BME280;48440;51.224;22.506;2024-03-06T08:31:34;99572.56;;;5.09;83.38
62402;BME280;48440;51.224;22.506;2024-03-06T08:33:59;99578.56;;;5.11;82.65
62402;BME280;48440;51.224;22.506;2024-03-06T08:36:28;99579.16;;;5.13;82.23
62402;BME280;48440;51.224;22.506;2024-03-06T08:38:54;99571.72;;;5.08;82.59
62402;BME280;48440;51.224;22.506;2024-03-06T08:41:19;99586.03;;;5.02;82.79
62402;BME280;48440;51.224;22.506;2024-03-06T08:43:45;99583.31;;;5.02;82.69
62402;BME280;48440;51.224;22.506;2024-03-06T08:46:11;99583.34;;;4.96;82.81
62402;BME280;48440;51.224;22.506;2024-03-06T08:48:37;99587.66;;;5.03;83.07
62402;BME280;48440;51.224;22.506;2024-03-06T08:51:04;99591.81;;;5.06;83.51
62402;BME280;48440;51.224;22.506;2024-03-06T08:53:36;99598.41;;;5.10;82.60
62402;BME280;48440;51.224;22.506;2024-03-06T08:56:02;99594.28;;;5.07;83.47
62402;BME280;48440;51.224;22.506;2024-03-06T08:58:28;99605.25;;;5.06;83.59
62402;BME280;48440;51.224;22.506;2024-03-06T09:00:53;99602.34;;;5.07;83.38
62402;BME280;48440;51.224;22.506;2024-03-06T09:03:19;99606.06;;;5.13;83.42
62402;BME280;48440;51.224;22.506;2024-03-06T09:05:44;99610.63;;;5.13;83.70
62402;BME280;48440;51.224;22.506;2024-03-06T09:08:10;99605.25;;;5.13;83.77
62402;BME280;48440;51.224;22.506;2024-03-06T09:10:37;99607.31;;;5.10;83.87
62402;BME280;48440;51.224;22.506;2024-03-06T09:13:02;99611.84;;;5.17;83.04
62402;BME280;48440;51.224;22.506;2024-03-06T09:15:28;99614.34;;;5.18;83.43
62402;BME280;48440;51.224;22.506;2024-03-06T09:17:53;99611.44;;;5.13;83.31
62402;BME280;48440;51.224;22.506;2024-03-06T09:20:20;99609.38;;;5.15;82.26
62402;BME280;48440;51.224;22.506;2024-03-06T09:22:49;99607.53;;;5.09;82.74
62402;BME280;48440;51.224;22.506;2024-03-06T09:25:15;99607.94;;;5.06;82.96
62402;BME280;48440;51.224;22.506;2024-03-06T09:27:41;99617.88;;;4.99;83.05
62402;BME280;48440;51.224;22.506;2024-03-06T09:30:07;99618.28;;;5.02;83.05
62402;BME280;48440;51.224;22.506;2024-03-06T09:32:34;99619.94;;;5.03;82.55
62402;BME280;48440;51.224;22.506;2024-03-06T09:34:59;99619.75;;;5.05;82.51
62402;BME280;48440;51.224;22.506;2024-03-06T09:37:25;99622.66;;;4.97;83.10
62402;BME280;48440;51.224;22.506;2024-03-06T09:39:51;99622.66;;;4.97;82.95
62402;BME280;48440;51.224;22.506;2024-03-06T09:42:16;99620.41;;;4.87;83.58
62402;BME280;48440;51.224;22.506;2024-03-06T09:44:43;99616.28;;;4.91;83.40
62402;BME280;48440;51.224;22.506;2024-03-06T09:47:13;99624.75;;;4.88;84.00
62402;BME280;48440;51.224;22.506;2024-03-06T09:49:40;99627.84;;;4.92;84.14
62402;BME280;48440;51.224;22.506;2024-03-06T09:52:06;99625.59;;;4.89;84.03
62402;BME280;48440;51.224;22.506;2024-03-06T09:54:31;99619.38;;;4.88;84.60
62402;BME280;48440;51.224;22.506;2024-03-06T09:56:57;99636.50;;;4.94;84.57
62402;BME280;48440;51.224;22.506;2024-03-06T09:59:24;99633.63;;;4.95;83.84
62402;BME280;48440;51.224;22.506;2024-03-06T10:01:54;99626.38;;;4.96;84.17
62402;BME280;48440;51.224;22.506;2024-03-06T10:04:21;99636.31;;;4.95;83.14
62402;BME280;48440;51.224;22.506;2024-03-06T10:06:48;99636.50;;;4.94;83.47
62402;BME280;48440;51.224;22.506;2024-03-06T10:09:18;99633.81;;;4.94;84.17
62402;BME280;48440;51.224;22.506;2024-03-06T10:11:44;99643.16;;;4.91;83.88
62402;BME280;48440;51.224;22.506;2024-03-06T10:14:10;99633.25;;;4.92;84.22
62402;BME280;48440;51.224;22.506;2024-03-06T10:19:36;99636.97;;;4.91;83.86
62402;BME280;48440;51.224;22.506;2024-03-06T10:22:06;99638.41;;;4.87;84.16
62402;BME280;48440;51.224;22.506;2024-03-06T10:24:34;99637.78;;;4.85;84.29
62402;BME280;48440;51.224;22.506;2024-03-06T10:26:59;99635.53;;;4.82;83.92
62402;BME280;48440;51.224;22.506;2024-03-06T10:29:29;99633.03;;;4.87;83.90
62402;BME280;48440;51.224;22.506;2024-03-06T10:31:57;99642.13;;;4.86;83.57
62402;BME280;48440;51.224;22.506;2024-03-06T10:34:27;99640.28;;;4.86;84.24
62402;BME280;48440;51.224;22.506;2024-03-06T10:37:01;99651.84;;;4.87;83.78
62402;BME280;48440;51.224;22.506;2024-03-06T10:39:33;99644.81;;;4.86;84.07
62402;BME280;48440;51.224;22.506;2024-03-06T10:42:06;99637.59;;;4.80;83.65
62402;BME280;48440;51.224;22.506;2024-03-06T10:44:33;99642.75;;;4.74;84.09
62402;BME280;48440;51.224;22.506;2024-03-06T10:47:08;99645.44;;;4.74;83.60
62402;BME280;48440;51.224;22.506;2024-03-06T10:49:35;99645.88;;;4.78;83.63
62402;BME280;48440;51.224;22.506;2024-03-06T10:52:03;99644.00;;;4.78;82.98
62402;BME280;48440;51.224;22.506;2024-03-06T10:54:34;99639.66;;;4.84;82.64
62402;BME280;48440;51.224;22.506;2024-03-06T10:57:08;99646.47;;;4.87;82.37
62402;BME280;48440;51.224;22.506;2024-03-06T10:59:35;99636.75;;;4.86;82.31
62402;BME280;48440;51.224;22.506;2024-03-06T11:02:00;99646.91;;;4.84;82.43
62402;BME280;48440;51.224;22.506;2024-03-06T11:04:27;99648.75;;;4.83;81.95
62402;BME280;48440;51.224;22.506;2024-03-06T11:07:01;99652.28;;;4.77;82.34
62402;BME280;48440;51.224;22.506;2024-03-06T11:09:28;99649.78;;;4.75;82.28
62402;BME280;48440;51.224;22.506;2024-03-06T11:11:57;99644.22;;;4.70;82.27
62402;BME280;48440;51.224;22.506;2024-03-06T11:14:26;99664.72;;;4.65;82.59
62402;BME280;48440;51.224;22.506;2024-03-06T11:17:04;99668.22;;;4.59;82.29
62402;BME280;48440;51.224;22.506;2024-03-06T11:19:31;99657.88;;;4.62;82.53
62402;BME280;48440;51.224;22.506;2024-03-06T11:21:57;99658.69;;;4.56;82.28
62402;BME280;48440;51.224;22.506;2024-03-06T11:24:32;99659.31;;;4.58;82.35
62402;BME280;48440;51.224;22.506;2024-03-06T11:27:02;99663.47;;;4.61;82.22
62402;BME280;48440;51.224;22.506;2024-03-06T11:32:57;99666.16;;;4.61;82.56
62402;BME280;48440;51.224;22.506;2024-03-06T11:35:24;99659.13;;;4.60;82.68
62402;BME280;48440;51.224;22.506;2024-03-06T11:37:50;99657.69;;;4.64;82.55
62402;BME280;48440;51.224;22.506;2024-03-06T11:40:23;99670.91;;;4.59;82.96
62402;BME280;48440;51.224;22.506;2024-03-06T11:42:49;99662.63;;;4.54;83.16
62402;BME280;48440;51.224;22.506;2024-03-06T11:45:19;99670.09;;;4.58;82.64
62402;BME280;48440;51.224;22.506;2024-03-06T11:48:00;99672.97;;;4.57;82.49
62402;BME280;48440;51.224;22.506;2024-03-06T11:50:27;99675.66;;;4.57;83.14
62402;BME280;48440;51.224;22.506;2024-03-06T11:52:53;99664.69;;;4.58;82.83
62402;BME280;48440;51.224;22.506;2024-03-06T11:55:21;99669.44;;;4.50;83.07
62402;BME280;48440;51.224;22.506;2024-03-06T11:57:47;99664.28;;;4.48;82.77
62402;BME280;48440;51.224;22.506;2024-03-06T12:00:13;99653.94;;;4.45;82.43
62402;BME280;48440;51.224;22.506;2024-03-06T12:02:40;99677.75;;;4.41;82.37
62402;BME280;48440;51.224;22.506;2024-03-06T12:05:06;99679.16;;;4.31;82.72
62402;BME280;48440;51.224;22.506;2024-03-06T12:07:31;99675.88;;;4.35;83.09
62402;BME280;48440;51.224;22.506;2024-03-06T12:09:58;99674.84;;;4.36;83.45
62402;BME280;48440;51.224;22.506;2024-03-06T12:12:24;99672.97;;;4.37;83.53
62402;BME280;48440;51.224;22.506;2024-03-06T12:14:58;99680.38;;;4.22;83.15
62402;BME280;48440;51.224;22.506;2024-03-06T12:17:25;99680.19;;;4.30;83.42
62402;BME280;48440;51.224;22.506;2024-03-06T12:19:50;99682.88;;;4.30;82.99
62402;BME280;48440;51.224;22.506;2024-03-06T12:22:18;99676.06;;;4.27;82.41
62402;BME280;48440;51.224;22.506;2024-03-06T12:24:44;99677.09;;;4.26;82.91
62402;BME280;48440;51.224;22.506;2024-03-06T12:27:09;99683.06;;;4.22;83.34
62402;BME280;48440;51.224;22.506;2024-03-06T12:29:35;99686.16;;;4.19;84.09
62402;BME280;48440;51.224;22.506;2024-03-06T12:32:03;99681.22;;;4.16;83.35
62402;BME280;48440;51.224;22.506;2024-03-06T12:34:29;99680.38;;;4.22;83.00
62402;BME280;48440;51.224;22.506;2024-03-06T12:36:55;99682.03;;;4.23;83.22
62402;BME280;48440;51.224;22.506;2024-03-06T12:39:26;99683.47;;;4.25;82.77
62402;BME280;48440;51.224;22.506;2024-03-06T12:41:51;99679.78;;;4.26;82.67
62402;BME280;48440;51.224;22.506;2024-03-06T12:44:19;99689.25;;;4.22;82.80
62402;BME280;48440;51.224;22.506;2024-03-06T12:46:45;99688.84;;;4.25;82.93
62402;BME280;48440;51.224;22.506;2024-03-06T12:49:11;99690.94;;;4.30;82.22
62402;BME280;48440;51.224;22.506;2024-03-06T12:51:36;99688.84;;;4.25;82.21
62402;BME280;48440;51.224;22.506;2024-03-06T12:54:02;99685.34;;;4.25;82.68
62402;BME280;48440;51.224;22.506;2024-03-06T12:56:29;99688.22;;;4.23;82.20
62402;BME280;48440;51.224;22.506;2024-03-06T12:58:54;99684.28;;;4.19;82.96
62402;BME280;48440;51.224;22.506;2024-03-06T13:01:20;99693.59;;;4.23;82.66
62402;BME280;48440;51.224;22.506;2024-03-06T13:03:45;99695.47;;;4.23;82.67